Terminal Aerodrome Forecast
Issued by NWS

Home | Current Version | Previous Version | Text Only | Print | Product List | Glossary On
Versions: 1 2 3 4 5 6 7 8 9 10 11 12 13 14 15 16 17 18 19 20 21 22 23
000
FTAK31 PAJN 300537
TAFAYA
TAF
PAYA 300537Z 3006/0106 08008KT P6SM VCSH FEW006 SCT015 BKN035
      TEMPO 3006/3010 SCT006 BKN015 OVC025
     FM301200 09010G15KT P6SM SCT015 BKN025 OVC060
     FM301800 08015G25KT 5SM -RA BR FEW006 SCT010 OVC025
      WS020/12035KT
     FM302100 08020G30KT 3SM RA BR SCT006 OVC010 WS020/15050KT
      AMD LTD TO CLD VIS AND WIND TIL 300900=

USA.gov is the U.S. government's official web portal to all federal, state and local government web resources and services.